Time;durP1;ratioP1;P1;durP2;ratioP2;P2;SDS_P1;SDS_P2;PMS_P1;PMS_P2;Temp;Humidity;BMP_temperature;BMP_pressure;BME280_temperature;BME280_humidity;BME280_pressure;Samples;Min_cycle;Max_cycle;Signal;HPM_P1;HPM_P2
2023/01/04 00:01:41;;;;;;;;;;;26.10;99.90;;;;;;5055090;28;19921;-69
2023/01/04 00:04:08;;;;;;;;;;;26.20;99.90;;;;;;5071845;28;20003;-69
2023/01/04 00:06:35;;;;;;;;;;;26.30;99.90;;;;;;5071889;28;19916;-69
2023/01/04 00:09:02;;;;;;;;;;;26.50;99.90;;;;;;5072010;28;19912;-69
2023/01/04 00:11:28;;;;;;;;;;;26.60;99.90;;;;;;5072375;28;19948;-69
2023/01/04 00:13:56;;;;;;;;;;;26.80;99.90;;;;;;5075018;28;19908;-72
2023/01/04 00:16:23;;;;;;;;;;;26.70;99.90;;;;;;5074281;28;19909;-71
2023/01/04 00:18:51;;;;;;;;;;;26.60;99.90;;;;;;5075670;28;20929;-73
2023/01/04 00:21:19;;;;;;;;;;;26.50;99.90;;;;;;5075491;28;20005;-71
2023/01/04 00:23:48;;;;;;;;;;;26.40;99.90;;;;;;5059590;28;19912;-70
2023/01/04 00:26:17;;;;;;;;;;;26.30;99.90;;;;;;5075108;28;19956;-73
2023/01/04 00:28:44;;;;;;;;;;;26.00;99.90;;;;;;5075407;28;19954;-68
2023/01/04 00:31:12;;;;;;;;;;;26.00;99.90;;;;;;5075450;28;19909;-69
2023/01/04 00:33:38;;;;;;;;;;;26.00;99.90;;;;;;5075346;28;19908;-69
2023/01/04 00:36:12;;;;;;;;;;;25.90;99.90;;;;;;5075190;28;19920;-69
2023/01/04 00:38:39;;;;;;;;;;;25.80;99.90;;;;;;5075471;28;20015;-71
2023/01/04 00:41:10;;;;;;;;;;;25.80;99.90;;;;;;5073682;28;20211;-69
2023/01/04 00:43:36;;;;;;;;;;;25.70;99.90;;;;;;5055579;28;19956;-72
2023/01/04 00:46:05;;;;;;;;;;;25.50;99.90;;;;;;5055296;28;20007;-73
2023/01/04 00:48:32;;;;;;;;;;;25.30;99.90;;;;;;5055763;28;19908;-73
2023/01/04 00:50:59;;;;;;;;;;;25.10;99.90;;;;;;5068417;28;19982;-73
2023/01/04 00:53:25;;;;;;;;;;;24.90;99.90;;;;;;5075789;28;19916;-73
2023/01/04 00:55:52;;;;;;;;;;;24.70;99.90;;;;;;5091804;28;19944;-70
2023/01/04 00:58:18;;;;;;;;;;;24.70;99.90;;;;;;5084688;28;20296;-69
2023/01/04 01:00:45;;;;;;;;;;;24.60;99.90;;;;;;5081691;28;19999;-67
2023/01/04 01:03:12;;;;;;;;;;;24.50;99.90;;;;;;5056452;28;20316;-69
2023/01/04 01:05:38;;;;;;;;;;;24.40;99.90;;;;;;5055011;28;19916;-67
2023/01/04 01:10:50;;;;;;;;;;;24.20;99.90;;;;;;5055287;28;20392;-68
2023/01/04 01:13:17;;;;;;;;;;;24.20;99.90;;;;;;5054886;28;20314;-70
2023/01/04 01:15:44;;;;;;;;;;;24.00;99.90;;;;;;5054577;28;19962;-70
2023/01/04 01:18:10;;;;;;;;;;;24.00;99.90;;;;;;5072972;28;19916;-68
2023/01/04 01:20:43;;;;;;;;;;;24.00;99.90;;;;;;5074432;28;19919;-69
2023/01/04 01:23:14;;;;;;;;;;;23.90;99.90;;;;;;5074233;28;19916;-68
2023/01/04 01:25:41;;;;;;;;;;;23.90;99.90;;;;;;5074454;28;20324;-68
2023/01/04 01:28:08;;;;;;;;;;;23.80;99.90;;;;;;5074489;28;19915;-71
2023/01/04 01:30:38;;;;;;;;;;;23.80;99.90;;;;;;5074686;28;19905;-68
2023/01/04 01:33:05;;;;;;;;;;;23.80;99.90;;;;;;5074291;28;19909;-68
2023/01/04 01:35:32;;;;;;;;;;;23.70;99.90;;;;;;5073653;28;20296;-69
2023/01/04 01:37:59;;;;;;;;;;;23.70;99.90;;;;;;5072386;28;19978;-68
2023/01/04 01:40:25;;;;;;;;;;;23.70;99.90;;;;;;5073829;28;19951;-67
2023/01/04 01:42:52;;;;;;;;;;;23.60;99.90;;;;;;5067167;28;19923;-67
2023/01/04 01:45:29;;;;;;;;;;;23.70;99.90;;;;;;5053889;28;19919;-68
2023/01/04 01:48:16;;;;;;;;;;;23.80;99.90;;;;;;5054070;28;19909;-67
2023/01/04 01:51:09;;;;;;;;;;;24.10;99.90;;;;;;5053551;28;19909;-69
2023/01/04 01:53:37;;;;;;;;;;;24.50;99.90;;;;;;5053244;28;19948;-68
2023/01/04 01:56:05;;;;;;;;;;;25.20;99.90;;;;;;5053538;28;20270;-67
2023/01/04 01:58:38;;;;;;;;;;;25.60;99.90;;;;;;5054685;28;19944;-73
2023/01/04 02:01:06;;;;;;;;;;;25.90;99.90;;;;;;5054123;28;19909;-75
2023/01/04 02:03:35;;;;;;;;;;;26.60;99.90;;;;;;5053619;28;19909;-73
2023/01/04 02:06:04;;;;;;;;;;;26.90;99.90;;;;;;5053509;28;19912;-73
2023/01/04 02:08:31;;;;;;;;;;;27.10;99.90;;;;;;5052563;28;19916;-73
2023/01/04 02:10:58;;;;;;;;;;;27.20;99.90;;;;;;5062463;28;19912;-74
2023/01/04 02:14:25;;;;;;;;;;;27.20;99.90;;;;;;5073731;28;19912;-68
2023/01/04 02:16:36;;;;;;;;;;;26.80;99.90;;;;;;5073301;28;19909;-68
2023/01/04 02:19:06;;;;;;;;;;;26.70;99.90;;;;;;5061280;28;20369;-68
2023/01/04 02:21:43;;;;;;;;;;;26.60;99.90;;;;;;5053260;28;19909;-69
2023/01/04 02:24:16;;;;;;;;;;;26.50;99.90;;;;;;5053417;28;19913;-68
2023/01/04 02:27:05;;;;;;;;;;;26.20;99.90;;;;;;5053361;28;19909;-68
2023/01/04 02:29:51;;;;;;;;;;;26.10;99.90;;;;;;5055521;28;19913;-73
2023/01/04 02:32:27;;;;;;;;;;;26.00;99.90;;;;;;5053412;28;20312;-72
2023/01/04 02:35:23;;;;;;;;;;;25.80;99.90;;;;;;5052782;28;20393;-70
2023/01/04 02:37:54;;;;;;;;;;;25.50;99.90;;;;;;5055369;28;19970;-70
2023/01/04 02:40:39;;;;;;;;;;;25.10;99.90;;;;;;5073023;28;19966;-68
2023/01/04 02:46:05;;;;;;;;;;;24.60;99.90;;;;;;5072704;28;20392;-68
2023/01/04 02:51:33;;;;;;;;;;;24.40;99.90;;;;;;5072513;28;20040;-68
2023/01/04 02:54:03;;;;;;;;;;;24.30;99.90;;;;;;5072765;28;19971;-68
2023/01/04 02:56:35;;;;;;;;;;;24.40;99.90;;;;;;5072738;28;19909;-68
2023/01/04 02:59:02;;;;;;;;;;;24.30;99.90;;;;;;5072423;28;20368;-68
2023/01/04 03:07:20;;;;;;;;;;;24.40;99.90;;;;;;5072668;28;20015;-73
2023/01/04 03:09:48;;;;;;;;;;;24.30;99.90;;;;;;5058285;28;19913;-69
2023/01/04 03:12:34;;;;;;;;;;;24.20;99.90;;;;;;5052444;28;19913;-69
2023/01/04 03:15:16;;;;;;;;;;;24.10;99.90;;;;;;5053448;28;21720;-69
2023/01/04 03:18:02;;;;;;;;;;;24.00;99.90;;;;;;5052498;28;19913;-69
2023/01/04 03:20:31;;;;;;;;;;;23.90;99.90;;;;;;5052736;28;19913;-69
2023/01/04 03:37:41;;;;;;;;;;;23.30;99.90;;;;;;5060568;28;19944;-70
2023/01/04 03:49:10;;;;;;;;;;;23.00;99.90;;;;;;5057471;28;19920;-68
2023/01/04 03:51:37;;;;;;;;;;;23.00;99.90;;;;;;5074987;28;20349;-69
2023/01/04 03:54:21;;;;;;;;;;;23.00;99.90;;;;;;5076060;28;20277;-69
2023/01/04 03:56:49;;;;;;;;;;;23.00;99.90;;;;;;5058409;28;20410;-70
2023/01/04 03:59:16;;;;;;;;;;;23.00;99.90;;;;;;5055568;28;20282;-70
2023/01/04 04:01:43;;;;;;;;;;;22.80;99.90;;;;;;5055684;28;19915;-69
2023/01/04 04:09:39;;;;;;;;;;;22.60;99.90;;;;;;5058774;28;19924;-70
2023/01/04 04:12:06;;;;;;;;;;;22.60;99.90;;;;;;5059505;28;19912;-69
2023/01/04 04:14:33;;;;;;;;;;;22.50;99.90;;;;;;5064920;28;19919;-70
2023/01/04 04:16:59;;;;;;;;;;;22.50;99.90;;;;;;5068088;28;20283;-70
2023/01/04 04:19:26;;;;;;;;;;;22.50;99.90;;;;;;5055499;28;19972;-69
2023/01/04 04:21:52;;;;;;;;;;;22.50;99.90;;;;;;5055706;28;20002;-70
2023/01/04 04:24:23;;;;;;;;;;;22.60;99.90;;;;;;5054405;28;20449;-69
2023/01/04 04:26:50;;;;;;;;;;;22.60;99.90;;;;;;5055508;28;19916;-69
2023/01/04 04:29:17;;;;;;;;;;;22.60;99.90;;;;;;5062642;28;20389;-69
2023/01/04 04:31:43;;;;;;;;;;;22.60;99.90;;;;;;5074880;28;19912;-69
2023/01/04 04:34:10;;;;;;;;;;;22.60;99.90;;;;;;5075460;28;20280;-69
2023/01/04 04:36:37;;;;;;;;;;;22.70;99.90;;;;;;5075221;28;20258;-69
2023/01/04 04:39:04;;;;;;;;;;;22.60;99.90;;;;;;5075365;28;19962;-69
2023/01/04 04:41:40;;;;;;;;;;;22.50;99.90;;;;;;5075276;28;19908;-69
2023/01/04 04:44:11;;;;;;;;;;;22.50;99.90;;;;;;5075175;28;20299;-69
2023/01/04 04:46:37;;;;;;;;;;;22.50;99.90;;;;;;5063755;28;19912;-69
2023/01/04 04:49:04;;;;;;;;;;;22.60;99.90;;;;;;5066989;28;20371;-69
2023/01/04 04:51:31;;;;;;;;;;;22.60;99.90;;;;;;5055402;28;19916;-68
2023/01/04 04:54:01;;;;;;;;;;;22.60;99.90;;;;;;5055043;28;20280;-69
2023/01/04 04:56:28;;;;;;;;;;;22.60;99.90;;;;;;5054943;28;19951;-68
2023/01/04 04:58:55;;;;;;;;;;;22.60;99.90;;;;;;5054394;28;20008;-69
2023/01/04 05:01:21;;;;;;;;;;;22.70;99.90;;;;;;5073534;28;20065;-69
2023/01/04 05:03:48;;;;;;;;;;;22.60;99.90;;;;;;5074983;28;19908;-69
2023/01/04 05:06:14;;;;;;;;;;;22.50;99.90;;;;;;5074595;28;19908;-69
2023/01/04 05:08:41;;;;;;;;;;;22.50;99.90;;;;;;5068625;28;19920;-68
2023/01/04 05:11:09;;;;;;;;;;;22.50;99.90;;;;;;5055722;28;19920;-69
2023/01/04 05:13:36;;;;;;;;;;;22.50;99.90;;;;;;5066500;28;19913;-69
2023/01/04 05:16:03;;;;;;;;;;;22.60;99.90;;;;;;5074814;28;19908;-69
2023/01/04 05:18:30;;;;;;;;;;;22.60;99.90;;;;;;5074951;28;19927;-69
2023/01/04 05:20:57;;;;;;;;;;;22.60;99.90;;;;;;5074945;28;19915;-68
2023/01/04 05:23:23;;;;;;;;;;;22.60;99.90;;;;;;5068374;28;19919;-69
2023/01/04 05:25:56;;;;;;;;;;;22.60;99.90;;;;;;5054579;28;19913;-69
2023/01/04 05:28:22;;;;;;;;;;;22.60;99.90;;;;;;5054600;28;19908;-69
2023/01/04 05:30:50;;;;;;;;;;;22.50;99.90;;;;;;5054618;28;20407;-69
2023/01/04 05:33:19;;;;;;;;;;;22.60;99.90;;;;;;5054473;28;19909;-69
2023/01/04 05:35:46;;;;;;;;;;;22.60;99.90;;;;;;5053473;28;19944;-70
2023/01/04 05:38:13;;;;;;;;;;;22.50;99.90;;;;;;5058370;28;20410;-69
2023/01/04 05:40:39;;;;;;;;;;;22.30;99.90;;;;;;5074033;28;19913;-68
2023/01/04 05:43:06;;;;;;;;;;;22.30;99.90;;;;;;5074330;28;19908;-70
2023/01/04 05:45:33;;;;;;;;;;;22.20;99.90;;;;;;5074199;28;20375;-68
2023/01/04 05:47:59;;;;;;;;;;;22.10;99.90;;;;;;5074327;28;19915;-68
2023/01/04 05:50:26;;;;;;;;;;;22.10;99.90;;;;;;5072678;28;19948;-68
2023/01/04 05:52:53;;;;;;;;;;;22.00;99.90;;;;;;5075499;28;20000;-69
2023/01/04 05:55:20;;;;;;;;;;;22.00;99.90;;;;;;5077782;28;19908;-68
2023/01/04 05:57:46;;;;;;;;;;;21.90;99.90;;;;;;5091893;28;19913;-69
2023/01/04 06:00:13;;;;;;;;;;;21.80;99.90;;;;;;5055408;28;20021;-70
2023/01/04 06:02:40;;;;;;;;;;;21.90;99.90;;;;;;5054339;28;19913;-69
2023/01/04 06:05:08;;;;;;;;;;;21.90;99.90;;;;;;5053484;28;19965;-68
2023/01/04 06:07:35;;;;;;;;;;;21.90;99.90;;;;;;5054062;28;19915;-69
2023/01/04 06:10:01;;;;;;;;;;;21.90;99.90;;;;;;5052752;28;19924;-69
2023/01/04 06:12:28;;;;;;;;;;;21.90;99.90;;;;;;5053483;28;19909;-68
2023/01/04 06:14:55;;;;;;;;;;;21.90;99.90;;;;;;5053373;28;20422;-69
2023/01/04 06:17:21;;;;;;;;;;;21.90;99.90;;;;;;5062686;28;19916;-69
2023/01/04 06:19:48;;;;;;;;;;;21.80;99.90;;;;;;5059881;28;19913;-68
2023/01/04 06:22:15;;;;;;;;;;;21.90;99.90;;;;;;5053438;28;20345;-69
2023/01/04 06:24:41;;;;;;;;;;;21.90;99.90;;;;;;5051926;28;19909;-69
2023/01/04 06:27:10;;;;;;;;;;;21.80;99.90;;;;;;5053078;28;20324;-70
2023/01/04 06:29:37;;;;;;;;;;;21.80;99.90;;;;;;5053372;28;19951;-69
2023/01/04 06:32:04;;;;;;;;;;;21.70;99.90;;;;;;5052833;28;19909;-69
2023/01/04 06:34:30;;;;;;;;;;;21.70;99.90;;;;;;5053107;28;20004;-69
2023/01/04 06:36:57;;;;;;;;;;;21.70;99.90;;;;;;5052463;28;19964;-69
2023/01/04 06:39:24;;;;;;;;;;;21.70;99.90;;;;;;5064978;28;19924;-68
2023/01/04 06:41:50;;;;;;;;;;;21.60;99.90;;;;;;5073171;28;20015;-70
2023/01/04 06:44:17;;;;;;;;;;;21.60;99.90;;;;;;5072411;28;20296;-68
2023/01/04 06:46:44;;;;;;;;;;;21.50;99.90;;;;;;5052867;28;19909;-69
2023/01/04 06:49:10;;;;;;;;;;;21.50;99.90;;;;;;5051798;28;19917;-69
2023/01/04 06:51:37;;;;;;;;;;;21.40;99.90;;;;;;5052937;28;19999;-69
2023/01/04 06:54:03;;;;;;;;;;;21.40;99.90;;;;;;5052820;28;20074;-68
2023/01/04 06:56:31;;;;;;;;;;;21.30;99.90;;;;;;5053004;28;19954;-69
2023/01/04 06:58:57;;;;;;;;;;;21.30;99.90;;;;;;5062958;28;20381;-69
2023/01/04 07:01:24;;;;;;;;;;;21.30;99.90;;;;;;5072733;28;19959;-68
2023/01/04 07:03:51;;;;;;;;;;;21.20;99.90;;;;;;5072876;28;20361;-69
2023/01/04 07:06:17;;;;;;;;;;;21.20;99.90;;;;;;5072586;28;20373;-68
2023/01/04 07:08:44;;;;;;;;;;;21.20;99.90;;;;;;5072836;28;19916;-66
2023/01/04 07:11:11;;;;;;;;;;;21.20;99.90;;;;;;5072941;28;19967;-69
2023/01/04 07:13:37;;;;;;;;;;;21.20;99.90;;;;;;5072705;28;19931;-68
2023/01/04 07:16:04;;;;;;;;;;;21.20;99.90;;;;;;5057445;28;20353;-68
2023/01/04 07:18:31;;;;;;;;;;;21.20;99.90;;;;;;5053737;28;20046;-67
2023/01/04 07:20:57;;;;;;;;;;;21.10;99.90;;;;;;5068767;28;19913;-69
2023/01/04 07:23:24;;;;;;;;;;;21.00;99.90;;;;;;5072578;28;19915;-68
2023/01/04 07:25:51;;;;;;;;;;;21.00;99.90;;;;;;5072075;28;19932;-68
2023/01/04 07:29:13;;;;;;;;;;;20.90;99.90;;;;;;5068339;28;19916;-69
2023/01/04 07:31:04;;;;;;;;;;;20.90;99.90;;;;;;5052491;28;19908;-70
2023/01/04 07:33:31;;;;;;;;;;;20.80;99.90;;;;;;5058272;28;19913;-69
2023/01/04 07:36:02;;;;;;;;;;;21.00;99.90;;;;;;5072037;28;19920;-69
2023/01/04 07:38:28;;;;;;;;;;;21.10;99.90;;;;;;5072353;28;19962;-69
2023/01/04 07:40:55;;;;;;;;;;;21.20;99.90;;;;;;5070418;28;19912;-68
2023/01/04 07:43:21;;;;;;;;;;;21.20;99.90;;;;;;5071849;28;20368;-69
2023/01/04 07:45:48;;;;;;;;;;;21.40;99.90;;;;;;5072019;28;19952;-69
2023/01/04 07:48:15;;;;;;;;;;;21.60;99.90;;;;;;5072271;28;19916;-69
2023/01/04 07:50:41;;;;;;;;;;;21.90;99.90;;;;;;5072328;28;19931;-69
2023/01/04 07:53:08;;;;;;;;;;;22.00;99.90;;;;;;5071061;28;19915;-73
2023/01/04 07:55:35;;;;;;;;;;;22.00;99.90;;;;;;5070804;28;19958;-70
2023/01/04 07:58:01;;;;;;;;;;;22.10;99.90;;;;;;5070396;28;19970;-71
2023/01/04 08:00:28;;;;;;;;;;;22.00;99.90;;;;;;5051896;28;20377;-69
2023/01/04 08:02:56;;;;;;;;;;;21.90;99.90;;;;;;5051874;28;19909;-68
2023/01/04 08:05:24;;;;;;;;;;;21.70;99.90;;;;;;5051725;28;19923;-68
2023/01/04 08:07:51;;;;;;;;;;;21.60;99.90;;;;;;5052011;28;19920;-69
2023/01/04 08:10:18;;;;;;;;;;;21.40;99.90;;;;;;5052813;28;20367;-69
2023/01/04 08:12:44;;;;;;;;;;;21.40;99.90;;;;;;5051959;28;19936;-69
2023/01/04 08:15:13;;;;;;;;;;;21.20;99.90;;;;;;5065790;28;19913;-69
2023/01/04 08:17:40;;;;;;;;;;;21.20;99.90;;;;;;5051735;28;19920;-68
2023/01/04 08:20:07;;;;;;;;;;;21.10;99.90;;;;;;5052118;28;19958;-68
2023/01/04 08:22:33;;;;;;;;;;;21.10;99.90;;;;;;5051773;28;19913;-69
2023/01/04 08:25:00;;;;;;;;;;;21.10;99.90;;;;;;5059745;28;19909;-70
2023/01/04 08:27:27;;;;;;;;;;;21.10;99.90;;;;;;5050780;28;20411;-68
2023/01/04 08:29:53;;;;;;;;;;;21.10;99.90;;;;;;5056005;28;19913;-69
2023/01/04 08:32:20;;;;;;;;;;;21.00;99.90;;;;;;5055043;28;19913;-69
2023/01/04 08:34:47;;;;;;;;;;;21.00;99.90;;;;;;5054375;28;19909;-68
2023/01/04 08:37:13;;;;;;;;;;;20.90;99.90;;;;;;5064357;28;19920;-68
2023/01/04 08:39:40;;;;;;;;;;;20.80;99.90;;;;;;5075414;28;19967;-68
2023/01/04 08:42:07;;;;;;;;;;;20.90;99.90;;;;;;5075445;28;19908;-69
2023/01/04 08:44:33;;;;;;;;;;;20.80;99.90;;;;;;5075315;28;20315;-69
2023/01/04 08:47:00;;;;;;;;;;;20.80;99.90;;;;;;5075167;28;20244;-69
2023/01/04 08:49:27;;;;;;;;;;;20.70;99.90;;;;;;5075471;28;19911;-69
2023/01/04 08:51:53;;;;;;;;;;;20.70;99.90;;;;;;5057388;28;19923;-69
2023/01/04 08:54:21;;;;;;;;;;;20.60;99.90;;;;;;5053862;28;19959;-68
2023/01/04 08:56:48;;;;;;;;;;;20.60;99.90;;;;;;5054823;28;19909;-69
2023/01/04 08:59:15;;;;;;;;;;;20.50;99.90;;;;;;5054763;28;19923;-69
2023/01/04 09:01:41;;;;;;;;;;;20.50;99.90;;;;;;5054911;28;20276;-68
2023/01/04 09:04:08;;;;;;;;;;;20.60;99.90;;;;;;5055909;28;20393;-69
2023/01/04 09:06:36;;;;;;;;;;;20.50;99.90;;;;;;5054713;28;19912;-69
2023/01/04 09:09:02;;;;;;;;;;;20.50;99.90;;;;;;5056034;28;19913;-68
2023/01/04 09:11:29;;;;;;;;;;;20.50;99.90;;;;;;5054745;28;20082;-69
2023/01/04 09:13:56;;;;;;;;;;;20.50;99.90;;;;;;5055094;28;19909;-68
2023/01/04 09:16:23;;;;;;;;;;;20.50;99.90;;;;;;5054205;28;20300;-70
2023/01/04 09:18:50;;;;;;;;;;;20.50;99.90;;;;;;5061684;28;20024;-69
2023/01/04 09:21:19;;;;;;;;;;;20.50;99.90;;;;;;5074488;28;19999;-69
2023/01/04 09:23:46;;;;;;;;;;;20.50;99.90;;;;;;5074749;28;19944;-69
2023/01/04 09:26:14;;;;;;;;;;;20.40;99.90;;;;;;5074331;28;19908;-69
2023/01/04 09:28:41;;;;;;;;;;;20.40;99.90;;;;;;5074236;28;19909;-68
2023/01/04 09:31:09;;;;;;;;;;;20.30;99.90;;;;;;5072182;28;19909;-69
2023/01/04 09:33:35;;;;;;;;;;;20.30;99.90;;;;;;5054517;28;19916;-69
2023/01/04 09:36:06;;;;;;;;;;;20.40;99.90;;;;;;5054257;28;20020;-69
2023/01/04 09:38:34;;;;;;;;;;;20.30;99.90;;;;;;5057891;28;20441;-69
2023/01/04 09:41:06;;;;;;;;;;;20.30;99.90;;;;;;5074301;28;19913;-68
2023/01/04 09:43:50;;;;;;;;;;;20.30;99.90;;;;;;5062062;28;19959;-69
2023/01/04 09:46:28;;;;;;;;;;;20.30;99.90;;;;;;5070634;28;19912;-68
2023/01/04 09:49:04;;;;;;;;;;;20.20;99.90;;;;;;5073984;28;20284;-70
2023/01/04 09:51:33;;;;;;;;;;;20.20;99.90;;;;;;5074282;28;19912;-68
2023/01/04 09:54:03;;;;;;;;;;;20.20;99.90;;;;;;5074069;28;19912;-68
2023/01/04 09:56:34;;;;;;;;;;;20.10;99.90;;;;;;5073951;28;19912;-68
2023/01/04 09:59:14;;;;;;;;;;;20.10;99.90;;;;;;5069744;28;20444;-70
2023/01/04 10:01:43;;;;;;;;;;;20.10;99.90;;;;;;5073579;28;19923;-68
2023/01/04 10:04:25;;;;;;;;;;;20.10;99.90;;;;;;5073665;28;19909;-68
2023/01/04 10:06:52;;;;;;;;;;;20.10;99.90;;;;;;5072117;28;19913;-69
2023/01/04 10:09:19;;;;;;;;;;;20.10;99.90;;;;;;5073268;28;19908;-69
2023/01/04 10:11:46;;;;;;;;;;;20.10;99.90;;;;;;5073372;28;19909;-68
2023/01/04 10:14:18;;;;;;;;;;;20.10;99.90;;;;;;5073576;28;19958;-68
2023/01/04 10:17:03;;;;;;;;;;;20.10;99.90;;;;;;5073512;28;19978;-68
2023/01/04 10:19:39;;;;;;;;;;;20.00;99.90;;;;;;5053513;28;19921;-69
2023/01/04 10:22:12;;;;;;;;;;;20.00;99.90;;;;;;5053662;28;19909;-68
2023/01/04 10:24:38;;;;;;;;;;;20.00;99.90;;;;;;5053830;28;20373;-69
2023/01/04 10:27:08;;;;;;;;;;;20.10;99.90;;;;;;5070202;28;19913;-68
2023/01/04 10:29:52;;;;;;;;;;;20.10;99.90;;;;;;5073363;28;19909;-67
2023/01/04 10:32:33;;;;;;;;;;;20.00;99.90;;;;;;5073671;28;20007;-69
2023/01/04 10:34:59;;;;;;;;;;;20.00;99.90;;;;;;5071745;28;19959;-69
2023/01/04 10:37:36;;;;;;;;;;;20.00;99.90;;;;;;5070861;28;20296;-69
2023/01/04 10:40:11;;;;;;;;;;;20.00;99.90;;;;;;5053469;28;19917;-68
2023/01/04 10:42:40;;;;;;;;;;;20.00;99.90;;;;;;5053486;28;19909;-69
2023/01/04 10:45:12;;;;;;;;;;;20.00;99.90;;;;;;5055606;28;19909;-68
2023/01/04 10:47:39;;;;;;;;;;;20.00;99.90;;;;;;5055509;28;20356;-71
2023/01/04 10:50:29;;;;;;;;;;;20.00;99.90;;;;;;5055819;28;19955;-69
2023/01/04 10:53:00;;;;;;;;;;;20.00;99.90;;;;;;5051759;28;19908;-70
2023/01/04 10:55:36;;;;;;;;;;;20.00;99.90;;;;;;5072601;28;19919;-69
2023/01/04 10:58:12;;;;;;;;;;;20.00;99.90;;;;;;5063257;28;20409;-69
2023/01/04 11:00:50;;;;;;;;;;;20.00;99.90;;;;;;5052933;28;19909;-70
2023/01/04 11:03:20;;;;;;;;;;;20.00;99.90;;;;;;5052949;28;19919;-68
2023/01/04 11:06:13;;;;;;;;;;;20.00;99.90;;;;;;5052636;28;20023;-70
2023/01/04 11:08:45;;;;;;;;;;;19.90;99.90;;;;;;5052572;28;19915;-69
2023/01/04 11:11:15;;;;;;;;;;;19.90;99.90;;;;;;5052683;28;19909;-68
2023/01/04 11:13:42;;;;;;;;;;;19.90;99.90;;;;;;5052366;28;19908;-70
2023/01/04 11:16:09;;;;;;;;;;;19.90;99.90;;;;;;5052699;28;19916;-69
2023/01/04 11:18:36;;;;;;;;;;;19.90;99.90;;;;;;5053161;28;19924;-69
2023/01/04 11:21:08;;;;;;;;;;;19.80;99.90;;;;;;5057701;28;19912;-69
2023/01/04 11:23:35;;;;;;;;;;;19.80;99.90;;;;;;5070549;28;19939;-69
2023/01/04 11:26:21;;;;;;;;;;;19.80;99.90;;;;;;5072324;28;19979;-68
2023/01/04 11:28:56;;;;;;;;;;;19.80;99.90;;;;;;5071867;28;19909;-68
2023/01/04 11:31:41;;;;;;;;;;;19.80;99.90;;;;;;5072459;28;19908;-70
2023/01/04 11:34:08;;;;;;;;;;;19.80;99.90;;;;;;5072512;28;19913;-69
2023/01/04 11:36:44;;;;;;;;;;;19.80;99.90;;;;;;5072166;28;19921;-69
2023/01/04 11:39:30;;;;;;;;;;;19.80;99.90;;;;;;5051651;28;19946;-68
2023/01/04 11:41:57;;;;;;;;;;;19.70;99.90;;;;;;5052132;28;20296;-71
2023/01/04 11:44:24;;;;;;;;;;;19.70;99.90;;;;;;5052292;28;20381;-68
2023/01/04 11:47:06;;;;;;;;;;;19.80;99.90;;;;;;5052196;28;19909;-68
2023/01/04 11:49:35;;;;;;;;;;;19.70;99.90;;;;;;5060399;28;19920;-68
2023/01/04 11:52:02;;;;;;;;;;;19.70;99.90;;;;;;5059002;28;20365;-69
2023/01/04 11:54:29;;;;;;;;;;;19.60;99.90;;;;;;5060877;28;19999;-69
2023/01/04 11:56:58;;;;;;;;;;;19.60;99.90;;;;;;5056949;28;19913;-69
2023/01/04 11:59:25;;;;;;;;;;;19.60;99.90;;;;;;5052196;28;19948;-69
2023/01/04 12:01:52;;;;;;;;;;;19.60;99.90;;;;;;5056766;28;20003;-69
2023/01/04 12:04:23;;;;;;;;;;;19.60;99.90;;;;;;5056935;28;20286;-70
2023/01/04 12:06:50;;;;;;;;;;;19.50;99.90;;;;;;5051636;28;19913;-68
2023/01/04 12:09:17;;;;;;;;;;;19.50;99.90;;;;;;5054209;28;19954;-70
2023/01/04 12:11:55;;;;;;;;;;;19.40;99.90;;;;;;5063190;28;20257;-68
2023/01/04 12:14:23;;;;;;;;;;;19.40;99.90;;;;;;5055540;28;19917;-68
2023/01/04 12:16:52;;;;;;;;;;;19.40;99.90;;;;;;5056455;28;19938;-69
2023/01/04 12:19:20;;;;;;;;;;;19.40;99.90;;;;;;5061321;28;19920;-70
2023/01/04 12:21:49;;;;;;;;;;;19.40;99.90;;;;;;5071378;28;20019;-68
2023/01/04 12:24:20;;;;;;;;;;;19.30;99.90;;;;;;5071725;28;20396;-69
2023/01/04 12:26:47;;;;;;;;;;;19.30;99.90;;;;;;5075039;28;19908;-70
2023/01/04 12:29:23;;;;;;;;;;;19.40;99.90;;;;;;5071653;28;19912;-68
2023/01/04 12:31:51;;;;;;;;;;;19.30;99.90;;;;;;5075896;28;20407;-69
2023/01/04 12:34:26;;;;;;;;;;;19.30;99.90;;;;;;5056859;28;20362;-68
2023/01/04 12:36:54;;;;;;;;;;;19.30;99.90;;;;;;5059084;28;19921;-69
2023/01/04 12:39:30;;;;;;;;;;;19.40;99.90;;;;;;5067288;28;20007;-68
2023/01/04 12:42:00;;;;;;;;;;;19.40;99.90;;;;;;5071863;28;19913;-69
2023/01/04 12:44:36;;;;;;;;;;;19.40;99.90;;;;;;5063489;28;20361;-69
2023/01/04 12:49:57;;;;;;;;;;;19.30;99.90;;;;;;5056314;28;19928;-69
2023/01/04 12:52:24;;;;;;;;;;;19.30;99.90;;;;;;5070205;28;19912;-69
2023/01/04 12:54:56;;;;;;;;;;;19.30;99.90;;;;;;5060035;28;19917;-69
2023/01/04 12:57:31;;;;;;;;;;;19.40;99.90;;;;;;5058847;28;19917;-69
2023/01/04 13:00:05;;;;;;;;;;;19.40;99.90;;;;;;5068475;28;19956;-70
2023/01/04 13:02:32;;;;;;;;;;;19.30;99.90;;;;;;5060015;28;19995;-70
2023/01/04 13:05:01;;;;;;;;;;;19.40;99.90;;;;;;5064577;28;19920;-69
2023/01/04 13:07:32;;;;;;;;;;;19.30;99.90;;;;;;5054730;28;19930;-69
2023/01/04 13:10:18;;;;;;;;;;;19.40;99.90;;;;;;5054860;28;19931;-68
2023/01/04 13:13:00;;;;;;;;;;;19.40;99.90;;;;;;5059301;28;19965;-69
2023/01/04 13:15:40;;;;;;;;;;;19.40;99.90;;;;;;5074033;28;19966;-72
2023/01/04 13:18:29;;;;;;;;;;;19.40;99.90;;;;;;5074378;28;19964;-69
2023/01/04 13:20:56;;;;;;;;;;;19.40;99.90;;;;;;5074320;28;20003;-68
2023/01/04 13:23:25;;;;;;;;;;;19.40;99.90;;;;;;5073526;28;19995;-69
2023/01/04 13:25:52;;;;;;;;;;;19.40;99.90;;;;;;5071918;28;19908;-69
2023/01/04 13:28:19;;;;;;;;;;;19.40;99.90;;;;;;5054117;28;19916;-71
2023/01/04 13:30:46;;;;;;;;;;;19.40;99.90;;;;;;5054273;28;19996;-71
2023/01/04 13:33:19;;;;;;;;;;;19.40;99.90;;;;;;5064386;28;20280;-69
2023/01/04 13:36:02;;;;;;;;;;;19.30;99.90;;;;;;5073341;28;19920;-69
2023/01/04 13:38:29;;;;;;;;;;;19.40;99.90;;;;;;5074347;28;19965;-69
2023/01/04 13:41:03;;;;;;;;;;;19.40;99.90;;;;;;5068093;28;20019;-74
2023/01/04 13:43:29;;;;;;;;;;;19.40;99.90;;;;;;5054761;28;19909;-77
2023/01/04 13:46:14;;;;;;;;;;;19.40;99.90;;;;;;5054159;28;20429;-73
2023/01/04 13:48:42;;;;;;;;;;;19.30;99.90;;;;;;5054368;28;20377;-69
2023/01/04 13:51:12;;;;;;;;;;;19.30;99.90;;;;;;5054143;28;19962;-69
2023/01/04 13:53:39;;;;;;;;;;;19.20;99.90;;;;;;5066749;28;19919;-69
2023/01/04 13:56:22;;;;;;;;;;;19.10;99.90;;;;;;5073583;28;20383;-69
2023/01/04 13:58:48;;;;;;;;;;;19.00;99.90;;;;;;5073874;28;19923;-69
2023/01/04 14:01:37;;;;;;;;;;;19.00;99.90;;;;;;5074056;28;19909;-67
2023/01/04 14:04:05;;;;;;;;;;;18.90;99.90;;;;;;5074254;28;20012;-72
2023/01/04 14:06:45;;;;;;;;;;;18.90;99.90;;;;;;5073309;28;19909;-69
2023/01/04 14:09:14;;;;;;;;;;;18.90;99.90;;;;;;5073408;28;19908;-70
2023/01/04 14:11:57;;;;;;;;;;;18.90;99.90;;;;;;5073766;28;19912;-69
2023/01/04 14:14:24;;;;;;;;;;;18.90;99.90;;;;;;5054392;28;19912;-72
2023/01/04 14:17:03;;;;;;;;;;;18.80;99.90;;;;;;5053931;28;19913;-68
2023/01/04 14:19:48;;;;;;;;;;;18.80;99.90;;;;;;5053674;28;19917;-69
2023/01/04 14:22:24;;;;;;;;;;;18.80;99.90;;;;;;5053676;28;19912;-67
2023/01/04 14:24:52;;;;;;;;;;;18.80;99.90;;;;;;5053244;28;19913;-68
2023/01/04 14:27:35;;;;;;;;;;;18.70;99.90;;;;;;5053719;28;19912;-69
2023/01/04 14:30:20;;;;;;;;;;;18.70;99.90;;;;;;5053600;28;19970;-67
2023/01/04 14:32:54;;;;;;;;;;;18.70;99.90;;;;;;5055161;28;19913;-69
2023/01/04 14:35:20;;;;;;;;;;;18.70;99.90;;;;;;5072358;28;20000;-68
2023/01/04 14:37:47;;;;;;;;;;;18.70;99.90;;;;;;5073702;28;19913;-67
2023/01/04 14:40:15;;;;;;;;;;;18.60;99.90;;;;;;5073256;28;19991;-68
2023/01/04 14:42:41;;;;;;;;;;;18.50;99.90;;;;;;5073259;28;20408;-67
2023/01/04 14:45:12;;;;;;;;;;;18.50;99.90;;;;;;5073192;28;19949;-67
2023/01/04 14:47:38;;;;;;;;;;;18.50;99.90;;;;;;5073112;28;19908;-66
2023/01/04 14:50:05;;;;;;;;;;;18.60;99.90;;;;;;5072984;28;20348;-68
2023/01/04 14:52:32;;;;;;;;;;;18.60;99.90;;;;;;5071127;28;19909;-67
2023/01/04 14:54:58;;;;;;;;;;;18.60;99.90;;;;;;5053037;28;19909;-66
2023/01/04 14:57:25;;;;;;;;;;;18.50;99.90;;;;;;5052783;28;20274;-67
2023/01/04 14:59:51;;;;;;;;;;;18.50;99.90;;;;;;5052946;28;20362;-68
2023/01/04 15:02:19;;;;;;;;;;;18.60;99.90;;;;;;5069786;28;19913;-68
2023/01/04 15:04:45;;;;;;;;;;;18.60;99.90;;;;;;5072907;28;19909;-67
2023/01/04 15:07:32;;;;;;;;;;;18.50;99.90;;;;;;5072853;28;19908;-67
2023/01/04 15:09:59;;;;;;;;;;;18.50;99.90;;;;;;5052762;28;20374;-67
2023/01/04 15:12:25;;;;;;;;;;;18.50;99.90;;;;;;5052756;28;19908;-66
2023/01/04 15:14:52;;;;;;;;;;;18.50;99.90;;;;;;5052634;28;20364;-67
2023/01/04 15:17:19;;;;;;;;;;;18.50;99.90;;;;;;5052537;28;20376;-67
2023/01/04 15:19:45;;;;;;;;;;;18.50;99.90;;;;;;5052443;28;19916;-67